Atmospheric History
02/08/2018 19:45  to  2/9/2018 19:45
Change End Date:
To complete the export process:
1) Select all of the data below
2) Copy the data to the clipboard
3) Open a word processor such as Notepad
4) Paste the data into the word processor
5) Save the file

Date/Time (MDT), AirTemp, RH, Dewpoint ,AvgWindSpeed, GustWindSpeed, WindDirection, PrecipType, PrecipIntensity, PrecipAccumulation, PrecipRate
02/09/2018 19:39, -15, 77, -21 ,2, 6, SW, None, None, ,  
02/09/2018 19:33, -15, 77, -20 ,4, 6, W, None, None, ,  
02/09/2018 19:29, -14, 77, -19 ,6, 7, W, None, None, ,  
02/09/2018 19:18, -14, 78, -19 ,7, 9, W, None, None, ,  
02/09/2018 19:17, -14, 78, -19 ,8, 10, W, None, None, ,  
02/09/2018 19:08, -16, 78, -20 ,7, 10, W, None, None, ,  
02/09/2018 19:03, -16, 77, -21 ,6, 8, W, None, None, ,  
02/09/2018 18:58, -16, 77, -21 ,6, 6, W, None, None, ,  
02/09/2018 18:48, -16, 78, -21 ,4, 7, W, None, None, ,  
02/09/2018 18:48, -16, 78, -21 ,4, 7, W, None, None, ,  
02/09/2018 18:38, -17, 78, -22 ,4, 6, W, None, None, ,  
02/09/2018 18:33, -18, 77, -23 ,4, 8, W, None, None, ,  
02/09/2018 18:28, -20, 76, -25 ,7, 8, W, None, None, ,  
02/09/2018 18:18, -18, 78, -23 ,4, 6, SW, None, None, ,  
02/09/2018 18:18, -18, 78, -23 ,4, 6, SW, None, None, ,  
02/09/2018 18:08, -19, 76, -25 ,6, 7, NW, None, None, ,  
02/09/2018 18:02, -19, 76, -24 ,6, 7, NW, None, None, ,  
02/09/2018 17:58, -20, 74, -26 ,2, 6, NW, None, None, ,  
02/09/2018 17:48, -18, 75, -24 ,6, 6, NW, None, None, ,  
02/09/2018 17:47, -18, 75, -23 ,6, 6, NW, None, None, ,  
02/09/2018 17:38, -15, 77, -20 ,2, 4, W, None, None, ,  
02/09/2018 17:32, -15, 76, -21 ,3, 4, W, None, None, ,  
02/09/2018 17:28, -15, 77, -20 ,4, 4, W, None, None, ,  
02/09/2018 17:18, -14, 76, -19 ,1, 2, NW, None, None, ,  
02/09/2018 17:17, -14, 76, -19 ,0, 2, NW, None, None, ,  
02/09/2018 17:08, -14, 77, -19 ,1, 7, W, None, None, ,  
02/09/2018 17:02, -15, 75, -21 ,4, 8, W, None, None, ,  
02/09/2018 16:58, -14, 75, -20 ,6, 8, W, None, None, ,  
02/09/2018 16:48, -14, 75, -20 ,9, 9, W, None, None, ,  
02/09/2018 16:47, -14, 75, -20 ,9, 9, W, None, None, ,  
02/09/2018 16:38, -13, 75, -19 ,8, 9, W, None, None, ,  
02/09/2018 16:32, -12, 75, -18 ,7, 7, W, None, None, ,  
02/09/2018 16:28, -12, 76, -18 ,6, 6, W, None, None, ,  
02/09/2018 16:18, -12, 75, -18 ,7, 9, NW, None, None, ,  
02/09/2018 16:17, -12, 75, -17 ,7, 9, NW, None, None, ,  
02/09/2018 16:08, -11, 76, -17 ,7, 8, W, None, None, ,  
02/09/2018 16:02, -11, 76, -17 ,6, 7, W, None, None, ,  
02/09/2018 15:58, -12, 75, -17 ,6, 9, NW, None, None, ,  
02/09/2018 15:48, -10, 76, -16 ,7, 9, W, None, None, ,  
02/09/2018 15:47, -10, 76, -16 ,7, 9, W, None, None, ,  
02/09/2018 15:38, -11, 76, -16 ,4, 6, W, None, None, ,  
02/09/2018 15:32, -11, 76, -16 ,4, 7, NW, None, None, ,  
02/09/2018 15:27, -11, 76, -17 ,6, 8, NW, None, None, ,  
02/09/2018 15:17, -10, 76, -16 ,7, 8, NW, None, None, ,  
02/09/2018 15:17, -10, 76, -16 ,7, 8, NW, None, None, ,  
02/09/2018 15:07, -13, 76, -18 ,6, 7, NW, None, None, ,  
02/09/2018 15:02, -13, 76, -18 ,4, 6, NW, None, None, ,  
02/09/2018 14:57, -13, 76, -18 ,5, 6, NW, None, None, ,  
02/09/2018 14:47, -12, 75, -18 ,6, 9, NW, None, None, ,  
02/09/2018 14:47, -12, 75, -18 ,6, 9, NW, None, None, ,  
02/09/2018 14:37, -10, 76, -16 ,6, 9, W, None, None, ,  
02/09/2018 14:32, -10, 75, -16 ,6, 9, SW, None, None, ,  
02/09/2018 14:27, -9, 77, -15 ,5, 6, W, None, None, ,  
02/09/2018 14:17, -11, 76, -16 ,6, 7, SW, None, None, ,  
02/09/2018 14:17, -11, 76, -16 ,6, 7, SW, None, None, ,  
02/09/2018 14:07, -11, 76, -17 ,5, 7, SW, None, None, ,  
02/09/2018 14:02, -12, 76, -17 ,6, 7, SW, None, None, ,  
02/09/2018 13:57, -12, 76, -18 ,5, 6, SW, None, None, ,  
02/09/2018 13:47, -13, 75, -18 ,5, 6, S, None, None, ,  
02/09/2018 13:47, -13, 75, -18 ,5, 6, S, None, None, ,  
02/09/2018 13:37, -12, 75, -18 ,5, 9, S, None, None, ,  
02/09/2018 13:32, -10, 76, -16 ,6, 10, SW, None, None, ,  
02/09/2018 13:27, -11, 77, -16 ,9, 11, W, None, None, ,  
02/09/2018 13:17, -12, 76, -18 ,9, 9, NW, None, None, ,  
02/09/2018 13:17, -12, 76, -18 ,9, 9, NW, None, None, ,  
02/09/2018 13:07, -12, 75, -18 ,8, 9, NW, None, None, ,  
02/09/2018 13:02, -12, 76, -18 ,7, 9, NW, None, None, ,  
02/09/2018 12:57, -12, 75, -18 ,7, 9, NW, None, None, ,  
02/09/2018 12:47, -14, 75, -19 ,7, 10, NW, None, None, ,  
02/09/2018 12:47, -14, 75, -19 ,7, 10, NW, None, None, ,  
02/09/2018 12:37, -14, 75, -20 ,8, 9, NW, None, None, ,  
02/09/2018 12:32, -14, 75, -19 ,7, 9, NW, None, None, ,  
02/09/2018 12:27, -14, 75, -19 ,7, 10, NW, None, None, ,  
02/09/2018 12:17, -14, 75, -20 ,9, 11, NW, None, None, ,  
02/09/2018 12:17, -14, 75, -20 ,9, 11, NW, None, None, ,  
02/09/2018 12:07, -15, 75, -21 ,7, 9, NW, None, None, ,  
02/09/2018 12:02, -16, 74, -22 ,7, 9, NW, None, None, ,  
02/09/2018 11:57, -16, 74, -21 ,8, 9, NW, None, None, ,  
02/09/2018 11:47, -15, 74, -21 ,7, 11, NW, None, None, ,  
02/09/2018 11:47, -15, 74, -21 ,7, 11, NW, None, None, ,  
02/09/2018 11:37, -15, 74, -21 ,9, 10, NW, None, None, ,  
02/09/2018 11:32, -15, 75, -21 ,7, 9, NW, None, None, ,  
02/09/2018 11:27, -16, 75, -22 ,4, 5, NW, None, None, ,  
02/09/2018 11:17, -18, 74, -24 ,3, 5, W, None, None, ,  
02/09/2018 11:17, -18, 74, -24 ,2, 5, SW, None, None, ,  
02/09/2018 11:07, -19, 73, -25 ,4, 4, SW, None, None, ,  
02/09/2018 11:02, -20, 73, -26 ,2, 6, W, None, None, ,  
02/09/2018 10:56, -20, 73, -26 ,4, 6, SW, None, None, ,  
02/09/2018 10:47, -19, 74, -24 ,1, 2, W, None, None, ,  
02/09/2018 10:46, -19, 74, -24 ,0, 4, W, None, None, ,  
02/09/2018 10:36, -22, 72, -28 ,3, 4, SW, None, None, ,  
02/09/2018 10:32, -22, 73, -28 ,3, 4, W, None, None, ,  
02/09/2018 10:26, -22, 73, -28 ,2, 3, SW, None, None, ,  
02/09/2018 10:17, -23, 72, -29 ,2, 4, W, None, None, ,  
02/09/2018 10:16, -23, 72, -29 ,2, 4, W, None, None, ,  
02/09/2018 10:06, -24, 71, -30 ,3, 4, W, None, None, ,  
02/09/2018 10:02, -24, 71, -30 ,3, 4, W, None, None, ,  
02/09/2018 09:56, -23, 71, -30 ,0, 2, NW, None, None, ,  
02/09/2018 09:47, -23, 71, -30 ,0, 2, W, None, None, ,  
02/09/2018 09:46, -23, 71, -29 ,0, 2, W, None, None, ,  
02/09/2018 09:36, -24, 72, -30 ,2, 3, NW, None, None, ,  
02/09/2018 09:32, -25, 71, -31 ,0, 3, NW, None, None, ,  
02/09/2018 09:26, -24, 72, -30 ,2, 3, NW, None, None, ,  
02/09/2018 09:17, -24, 72, -30 ,1, 7, NW, None, None, ,  
02/09/2018 09:16, -25, 72, -30 ,2, 7, NW, None, None, ,  
02/09/2018 09:06, -25, 72, -32 ,6, 6, NW, None, None, ,  
02/09/2018 09:02, -26, 72, -32 ,6, 6, NW, None, None, ,  
02/09/2018 08:56, -25, 73, -30 ,3, 5, NW, None, None, ,  
02/09/2018 08:47, -26, 72, -32 ,2, 6, NW, None, None, ,  
02/09/2018 08:46, -26, 72, -32 ,4, 6, NW, None, None, ,  
02/09/2018 08:36, -26, 72, -32 ,1, 5, NW, None, None, ,  
02/09/2018 08:32, -26, 73, -32 ,4, 5, NW, None, None, ,  
02/09/2018 08:26, -27, 72, -33 ,3, 4, W, None, None, ,  
02/09/2018 08:17, -27, 72, -33 ,3, 4, W, None, None, ,  
02/09/2018 08:16, -27, 72, -33 ,2, 3, W, None, None, ,  
02/09/2018 08:06, -27, 72, -33 ,2, 4, W, None, None, ,  
02/09/2018 08:02, -27, 72, -33 ,1, 4, W, None, None, ,  
02/09/2018 07:56, -26, 73, -32 ,2, 3, W, None, None, ,  
02/09/2018 07:47, -27, 73, -33 ,2, 4, W, None, None, ,  
02/09/2018 07:46, -27, 73, -33 ,2, 4, W, None, None, ,  
02/09/2018 07:36, -27, 73, -33 ,3, 4, NW, None, None, ,  
02/09/2018 07:32, -27, 73, -33 ,3, 6, W, None, None, ,  
02/09/2018 07:26, -27, 73, -33 ,4, 6, W, None, None, ,  
02/09/2018 07:17, -29, 72, -35 ,4, 6, NW, None, None, ,  
02/09/2018 07:16, -29, 72, -36 ,5, 6, NW, None, None, ,  
02/09/2018 07:06, -28, 73, -34 ,4, 5, NW, None, None, ,  
02/09/2018 07:02, -27, 73, -33 ,4, 5, NW, None, None, ,  
02/09/2018 06:56, -28, 72, -34 ,4, 5, W, None, None, ,  
02/09/2018 06:47, -27, 72, -33 ,4, 4, NW, Yes, , ,  
02/09/2018 06:46, -27, 72, -33 ,3, 4, NW, None, None, ,  
02/09/2018 06:36, -26, 73, -32 ,4, 6, NW, None, None, ,  
02/09/2018 06:33, -27, 72, -33 ,1, 5, W, None, None, ,  
02/09/2018 06:25, -27, 72, -33 ,4, 6, NW, None, None, ,  
02/09/2018 06:18, -26, 73, -32 ,4, 6, NW, None, None, ,  
02/09/2018 06:15, -26, 73, -32 ,3, 5, NW, None, None, ,  
02/09/2018 06:05, -27, 72, -33 ,3, 4, NW, None, None, ,  
02/09/2018 06:03, -26, 73, -32 ,3, 4, NW, None, None, ,  
02/09/2018 05:55, -25, 73, -31 ,4, 4, NW, None, None, ,  
02/09/2018 05:48, -25, 73, -31 ,1, 4, NW, None, None, ,  
02/09/2018 05:45, -25, 73, -31 ,2, 4, NW, None, None, ,  
02/09/2018 05:35, -25, 73, -31 ,2, 4, NW, None, None, ,  
02/09/2018 05:33, -25, 73, -30 ,3, 4, NW, None, None, ,  
02/09/2018 05:25, -25, 73, -30 ,4, 6, NW, None, None, ,  
02/09/2018 05:17, -24, 74, -29 ,4, 6, NW, None, None, ,  
02/09/2018 05:15, -24, 73, -30 ,4, 6, NW, None, None, ,  
02/09/2018 05:05, -24, 74, -29 ,5, 6, NW, None, None, ,  
02/09/2018 05:03, -24, 74, -29 ,3, 6, NW, None, None, ,  
02/09/2018 04:55, -24, 73, -30 ,4, 7, NW, None, None, ,  
02/09/2018 04:48, -24, 73, -30 ,6, 8, NW, Yes, , ,  
02/09/2018 04:45, -23, 74, -29 ,7, 10, NW, None, None, ,  
02/09/2018 04:35, -22, 75, -27 ,9, 11, NW, None, None, ,  
02/09/2018 04:33, -22, 75, -27 ,10, 11, NW, None, None, ,  
02/09/2018 04:25, -22, 75, -28 ,9, 10, NW, None, None, ,  
02/09/2018 04:18, -23, 74, -28 ,9, 10, NW, None, None, ,  
02/09/2018 04:15, -23, 74, -29 ,7, 9, NW, None, None, ,  
02/09/2018 04:05, -23, 74, -28 ,3, 5, NW, None, None, ,  
02/09/2018 04:03, -23, 74, -28 ,2, 5, NW, None, None, ,  
02/09/2018 03:55, -23, 74, -28 ,3, 4, NW, None, None, ,  
02/09/2018 03:51, -21, 75, -27 ,1, 4, W, None, None, ,  
02/09/2018 03:45, -21, 75, -26 ,2, 4, W, None, None, ,  
02/09/2018 03:35, -20, 76, -25 ,4, 6, W, None, None, ,  
02/09/2018 03:33, -20, 76, -25 ,4, 5, SW, None, None, ,  
02/09/2018 03:25, -20, 76, -25 ,2, 4, W, None, None, ,  
02/09/2018 03:18, -20, 76, -25 ,2, 6, NW, None, None, ,  
02/09/2018 03:15, -21, 75, -27 ,3, 6, NW, None, None, ,  
02/09/2018 03:05, -22, 74, -28 ,6, 6, NW, None, None, ,  
02/09/2018 03:03, -21, 75, -26 ,6, 6, NW, None, None, ,  
02/09/2018 02:55, -19, 76, -24 ,4, 4, NW, None, None, ,  
02/09/2018 02:48, -19, 77, -24 ,1, 3, W, None, None, ,  
02/09/2018 02:45, -19, 76, -24 ,2, 3, W, None, None, ,  
02/09/2018 02:35, -18, 77, -23 ,1, 3, NW, None, None, ,  
02/09/2018 02:33, -18, 77, -23 ,1, 3, SW, None, None, ,  
02/09/2018 02:25, -18, 77, -23 ,2, 3, NW, None, None, ,  
02/09/2018 02:17, -19, 76, -25 ,0, 2, NW, None, None, ,  
02/09/2018 02:15, -19, 76, -24 ,0, 2, NW, None, None, ,  
02/09/2018 02:05, -18, 77, -23 ,1, 5, W, None, None, ,  
02/09/2018 02:03, -18, 77, -23 ,2, 5, SW, None, None, ,  
02/09/2018 01:55, -18, 77, -23 ,2, 7, W, None, None, ,  
02/09/2018 01:49, -16, 79, -21 ,6, 7, NW, None, None, ,  
02/09/2018 01:44, -17, 78, -22 ,4, 6, NW, None, None, ,  
02/09/2018 01:34, -17, 77, -22 ,4, 5, NW, None, None, ,  
02/09/2018 01:33, -17, 77, -22 ,3, 5, NW, None, None, ,  
02/09/2018 01:24, -17, 77, -22 ,3, 4, NW, None, None, ,  
02/09/2018 01:18, -17, 78, -22 ,3, 5, W, None, None, ,  
02/09/2018 01:14, -17, 78, -22 ,4, 5, NW, None, None, ,  
02/09/2018 01:04, -17, 78, -21 ,2, 5, N, None, None, ,  
02/09/2018 01:03, -17, 79, -21 ,2, 5, N, None, None, ,  
02/09/2018 00:54, -17, 78, -22 ,4, 4, N, None, None, ,  
02/09/2018 00:48, -17, 77, -22 ,2, 3, NW, None, None, ,  
02/09/2018 00:44, -17, 78, -22 ,2, 2, N, None, None, ,  
02/09/2018 00:34, -18, 77, -23 ,1, 2, W, None, None, ,  
02/09/2018 00:33, -17, 77, -22 ,1, 3, W, None, None, ,  
02/09/2018 00:24, -17, 78, -22 ,2, 4, NW, None, None, ,  
02/09/2018 00:18, -17, 77, -22 ,2, 3, NW, None, None, ,  
02/09/2018 00:14, -16, 78, -21 ,2, 3, NW, None, None, ,  
02/09/2018 00:04, -11, 81, -16 ,2, 5, N, None, None, ,  
02/09/2018 00:03, -11, 81, -15 ,4, 5, N, None, None, ,  
02/08/2018 23:54, -11, 81, -15 ,4, 4, N, None, None, ,  
02/08/2018 23:47, -12, 81, -16 ,2, 4, N, None, None, ,  
02/08/2018 23:44, -12, 81, -16 ,2, 4, NE, None, None, ,  
02/08/2018 23:34, -11, 83, -15 ,3, 3, NE, None, None, ,  
02/08/2018 23:33, -12, 82, -16 ,3, 3, N, None, None, ,  
02/08/2018 23:24, -12, 83, -15 ,2, 2, N, None, None, ,  
02/08/2018 23:17, -13, 80, -18 ,0, 2, W, None, None, ,  
02/08/2018 23:14, -13, 80, -18 ,0, 4, SW, None, None, ,  
02/08/2018 23:04, -11, 85, -14 ,2, 2, SW, None, None, ,  
02/08/2018 23:03, -11, 86, -14 ,2, 2, SW, None, None, ,  
02/08/2018 22:54, -13, 79, -18 ,2, 3, W, None, None, ,  
02/08/2018 22:47, -11, 82, -15 ,3, 4, SW, None, None, ,  
02/08/2018 22:44, -10, 83, -14 ,3, 4, SW, None, None, ,  
02/08/2018 22:34, -12, 80, -17 ,4, 6, SW, None, None, ,  
02/08/2018 22:33, -14, 78, -18 ,4, 6, SW, None, None, ,  
02/08/2018 22:24, -7, 84, -10 ,0, 1, NE, None, None, ,  
02/08/2018 22:18, -7, 84, -10 ,0, 1, N, None, None, ,  
02/08/2018 22:14, -7, 84, -11 ,0, 1, N, None, None, ,  
02/08/2018 22:04, -8, 85, -11 ,1, 2, N, None, None, ,  
02/08/2018 22:03, -8, 86, -11 ,2, 3, N, None, None, ,  
02/08/2018 21:54, -10, 82, -14 ,3, 3, N, None, None, ,  
02/08/2018 21:47, -8, 85, -11 ,1, 2, NW, None, None, ,  
02/08/2018 21:44, -10, 81, -14 ,2, 2, NW, None, None, ,  
02/08/2018 21:34, -7, 83, -10 ,0, 1, W, Yes, , ,  
02/08/2018 21:33, -7, 83, -10 ,0, 1, W, Yes, , ,  
02/08/2018 21:24, -7, 85, -10 ,1, 2, W, None, None, ,  
02/08/2018 21:18, -7, 85, -10 ,2, 3, W, None, None, ,  
02/08/2018 21:14, -7, 85, -11 ,1, 4, W, None, None, ,  
02/08/2018 21:04, -7, 82, -11 ,0, 2, NW, None, None, ,  
02/08/2018 21:03, -7, 82, -11 ,0, 2, NW, None, None, ,  
02/08/2018 20:53, -7, 84, -10 ,0, 2, W, None, None, ,  
02/08/2018 20:48, -7, 83, -10 ,1, 2, W, None, None, ,  
02/08/2018 20:43, -7, 81, -11 ,1, 3, NW, None, None, ,  
02/08/2018 20:33, -5, 84, -9 ,3, 3, N, Yes, , ,  
02/08/2018 20:32, -5, 84, -9 ,2, 3, N, Yes, , ,  
02/08/2018 20:23, -6, 82, -10 ,0, 2, NW, None, None, ,  
02/08/2018 20:17, -6, 82, -10 ,1, 2, N, None, None, ,  
02/08/2018 20:13, -6, 81, -10 ,1, 4, NW, None, None, ,  
02/08/2018 20:03, -5, 81, -10 ,4, 6, N, None, None, ,  
02/08/2018 20:03, -5, 81, -10 ,4, 6, N, None, None, ,  
02/08/2018 19:53, -6, 78, -11 ,6, 7, N, Yes, , ,  
02/08/2018 19:48, -3, 79, -8 ,7, 9, N, None, None, ,  
Change End Date:

Copyright © 1998-2015 Vaisala, Inc.
All Rights Reserved
Send comments about the data to:
SCAN Web ® is a registered trademark of Vaisala, Inc.
SCAN Web Version 6.0